Acra, NY

1:22 AM EDT on July 02, 2015 (GMT -0400)
Freehold | | Change Station
CLOSE
Current Station
Personal Weather Station
Location: Freehold, NY
Elevation: 587 ft
Nearby Weather Stations

Elev 587 ft 42.36 °N, 74.04 °W | Updated 14 minutes ago

Clear
Clear
59.4 °F
Feels Like 59.4 °F
N
0.0
Wind Variable Wind from NNE
Gusts 0.0 mph

Today
High -- | Low -- °F
--% Chance of Precip.
Yesterday
High -- | Low -- °F
Precip. -- in
5:23 AM 8:36 PM
Full, 100% visible
Pressure 29.86 in
Visibility 10.0 miles
Clouds Few 10000 ft
Scattered Clouds 26000 ft
Dew Point 58 °F
Humidity 96%
Rainfall 0.00 in
Snow Depth Not available.
UV 0 out of 12
Pollen 2.60 out of 12
Air Quality Not available.
Flu Activity Not available.
METAR KALB 020451Z 26007KT 10SM FEW100 SCT260 19/13 A2986 RMK AO2 SLP110 T01890133 402720178

More Conditions Fewer Conditions

Pressure 29.86 in
Visibility 10.0 miles
Clouds Few 10000 ft
Scattered Clouds 26000 ft
Dew Point 58 °F
Humidity 96%
Rainfall 0.00 in
Snow Depth Not available.
UV 0 out of 12
Pollen 2.60 out of 12
Air Quality Not available.
Flu Activity Not available.
METAR KALB 020451Z 26007KT 10SM FEW100 SCT260 19/13 A2986 RMK AO2 SLP110 T01890133 402720178

More Conditions Fewer Conditions

10-Day Weather Forecast

×

Almanac

Astronomy

Jul. 02, 2015 Rise Set
Actual Time
Civil Twilight
Nautical Twilight
Astronomical Twilight
Moon
Length of Visible Light
Length of Day
Tomorrow will be .
, % of the Moon is Illuminated

Today's Extremes

State Highs State Lows

Community

WunderPhotos

Upload Photos

1,834,423 photos uploaded!

WunderBlogs® & News

Nearby

Air Quality

  Air Quality AQ Index Pollutant
Not available.

Snow Depth

Station Depth Elevation

Earthquake Activity

City Distance Mag. Time & Date
Minimum magnitude displayed is 2.5.

Coastal Water Temperatures

Place Temperature

Stations

Nearby Weather Stations

Station Location Temp. Windchill Dew Point Humidity Wind Precip. Elev Updated Type